Terminal Aerodrome Forecast
Issued by NWS

Home | Current Version | Previous Version | Text Only | Print | Product List | Glossary On
Versions: 1 2 3 4 5 6 7 8 9 10 11 12 13 14
139
FTUS42 KTBW 230522
TAFLAL
TAF
KLAL 230522Z 2306/2406 VRB03KT P6SM FEW020 SCT250
     FM231400 06005KT P6SM FEW025 SCT250
     FM231800 06007KT P6SM VCTS FEW025CB SCT100 BKN250
     FM232300 12006KT P6SM VCTS SCT025CB BKN100
     FM240100 VRB05KT P6SM SCT100 BKN250
      AMD NOT SKED TIL 231100=

USA.gov is the U.S. government's official web portal to all federal, state and local government web resources and services.